sensor_id;sensor_type;location;lat;lon;timestamp;P1;durP1;ratioP1;P2;durP2;ratioP2
1949;SDS011;975;48.760;9.152;2023-05-01T00:01:21;11.00;;;4.60;;
1949;SDS011;975;48.760;9.152;2023-05-01T00:03:50;8.50;;;5.00;;
1949;SDS011;975;48.760;9.152;2023-05-01T00:06:18;9.40;;;4.72;;
1949;SDS011;975;48.760;9.152;2023-05-01T00:08:46;11.70;;;5.18;;
1949;SDS011;975;48.760;9.152;2023-05-01T00:11:13;8.57;;;4.53;;
1949;SDS011;975;48.760;9.152;2023-05-01T00:13:41;10.75;;;5.07;;
1949;SDS011;975;48.760;9.152;2023-05-01T00:16:09;10.05;;;4.88;;
1949;SDS011;975;48.760;9.152;2023-05-01T00:18:36;9.52;;;5.10;;
1949;SDS011;975;48.760;9.152;2023-05-01T00:21:05;10.10;;;4.65;;
1949;SDS011;975;48.760;9.152;2023-05-01T00:23:33;9.95;;;4.85;;
1949;SDS011;975;48.760;9.152;2023-05-01T00:26:01;9.55;;;4.80;;
1949;SDS011;975;48.760;9.152;2023-05-01T00:28:32;8.82;;;4.38;;
1949;SDS011;975;48.760;9.152;2023-05-01T00:30:59;9.60;;;4.95;;
1949;SDS011;975;48.760;9.152;2023-05-01T00:33:26;9.60;;;4.50;;
1949;SDS011;975;48.760;9.152;2023-05-01T00:35:54;13.38;;;4.72;;
1949;SDS011;975;48.760;9.152;2023-05-01T00:38:23;9.48;;;4.30;;
1949;SDS011;975;48.760;9.152;2023-05-01T00:40:50;9.75;;;4.50;;
1949;SDS011;975;48.760;9.152;2023-05-01T00:43:23;8.45;;;4.57;;
1949;SDS011;975;48.760;9.152;2023-05-01T00:45:51;7.85;;;4.40;;
1949;SDS011;975;48.760;9.152;2023-05-01T00:48:18;8.10;;;3.95;;
1949;SDS011;975;48.760;9.152;2023-05-01T00:50:45;8.88;;;4.22;;
1949;SDS011;975;48.760;9.152;2023-05-01T00:53:14;6.55;;;4.10;;
1949;SDS011;975;48.760;9.152;2023-05-01T00:55:51;6.05;;;4.03;;
1949;SDS011;975;48.760;9.152;2023-05-01T00:58:21;9.07;;;4.10;;
1949;SDS011;975;48.760;9.152;2023-05-01T01:00:48;12.40;;;4.82;;
1949;SDS011;975;48.760;9.152;2023-05-01T01:03:16;7.80;;;4.28;;
1949;SDS011;975;48.760;9.152;2023-05-01T01:05:45;11.90;;;4.22;;
1949;SDS011;975;48.760;9.152;2023-05-01T01:08:18;8.50;;;4.75;;
1949;SDS011;975;48.760;9.152;2023-05-01T01:10:54;8.50;;;4.50;;
1949;SDS011;975;48.760;9.152;2023-05-01T01:13:28;8.77;;;4.25;;
1949;SDS011;975;48.760;9.152;2023-05-01T01:16:03;9.55;;;4.18;;
1949;SDS011;975;48.760;9.152;2023-05-01T01:18:39;8.90;;;4.05;;
1949;SDS011;975;48.760;9.152;2023-05-01T01:21:11;11.68;;;4.68;;
1949;SDS011;975;48.760;9.152;2023-05-01T01:26:46;9.27;;;4.00;;
1949;SDS011;975;48.760;9.152;2023-05-01T01:29:38;8.93;;;4.00;;
1949;SDS011;975;48.760;9.152;2023-05-01T01:32:19;7.15;;;4.20;;
1949;SDS011;975;48.760;9.152;2023-05-01T01:35:05;8.63;;;4.22;;
1949;SDS011;975;48.760;9.152;2023-05-01T01:37:39;9.55;;;4.80;;
1949;SDS011;975;48.760;9.152;2023-05-01T01:40:16;9.15;;;4.55;;
1949;SDS011;975;48.760;9.152;2023-05-01T01:42:48;5.95;;;3.90;;
1949;SDS011;975;48.760;9.152;2023-05-01T01:45:20;9.82;;;4.72;;
1949;SDS011;975;48.760;9.152;2023-05-01T01:47:49;13.07;;;4.78;;
1949;SDS011;975;48.760;9.152;2023-05-01T01:50:19;7.15;;;4.22;;
1949;SDS011;975;48.760;9.152;2023-05-01T01:52:52;10.98;;;4.85;;
1949;SDS011;975;48.760;9.152;2023-05-01T01:55:21;10.18;;;4.75;;
1949;SDS011;975;48.760;9.152;2023-05-01T01:57:57;9.15;;;4.50;;
1949;SDS011;975;48.760;9.152;2023-05-01T02:00:26;10.27;;;4.63;;
1949;SDS011;975;48.760;9.152;2023-05-01T02:02:54;9.93;;;4.47;;
1949;SDS011;975;48.760;9.152;2023-05-01T02:05:26;10.85;;;5.47;;
1949;SDS011;975;48.760;9.152;2023-05-01T02:08:00;9.55;;;4.53;;
1949;SDS011;975;48.760;9.152;2023-05-01T02:10:28;12.10;;;5.00;;
1949;SDS011;975;48.760;9.152;2023-05-01T02:12:56;13.95;;;4.90;;
1949;SDS011;975;48.760;9.152;2023-05-01T02:15:30;9.07;;;4.45;;
1949;SDS011;975;48.760;9.152;2023-05-01T02:17:59;7.55;;;4.05;;
1949;SDS011;975;48.760;9.152;2023-05-01T02:20:29;7.20;;;4.70;;
1949;SDS011;975;48.760;9.152;2023-05-01T02:22:56;9.32;;;3.92;;
1949;SDS011;975;48.760;9.152;2023-05-01T02:25:25;7.93;;;4.32;;
1949;SDS011;975;48.760;9.152;2023-05-01T02:27:54;9.05;;;4.53;;
1949;SDS011;975;48.760;9.152;2023-05-01T02:30:25;6.03;;;4.13;;
1949;SDS011;975;48.760;9.152;2023-05-01T02:32:52;6.70;;;3.90;;
1949;SDS011;975;48.760;9.152;2023-05-01T02:35:20;8.77;;;4.47;;
1949;SDS011;975;48.760;9.152;2023-05-01T02:37:49;6.53;;;3.83;;
1949;SDS011;975;48.760;9.152;2023-05-01T02:40:16;9.63;;;4.50;;
1949;SDS011;975;48.760;9.152;2023-05-01T02:42:44;7.70;;;4.10;;
1949;SDS011;975;48.760;9.152;2023-05-01T02:45:21;7.95;;;3.90;;
1949;SDS011;975;48.760;9.152;2023-05-01T02:47:56;9.60;;;4.30;;
1949;SDS011;975;48.760;9.152;2023-05-01T02:50:25;6.90;;;4.47;;
1949;SDS011;975;48.760;9.152;2023-05-01T02:52:54;8.73;;;4.47;;
1949;SDS011;975;48.760;9.152;2023-05-01T02:55:22;6.47;;;4.10;;
1949;SDS011;975;48.760;9.152;2023-05-01T02:57:50;6.30;;;4.25;;
1949;SDS011;975;48.760;9.152;2023-05-01T03:00:18;8.13;;;4.63;;
1949;SDS011;975;48.760;9.152;2023-05-01T03:02:46;7.32;;;4.47;;
1949;SDS011;975;48.760;9.152;2023-05-01T03:05:13;8.80;;;4.00;;
1949;SDS011;975;48.760;9.152;2023-05-01T03:07:41;10.48;;;3.88;;
1949;SDS011;975;48.760;9.152;2023-05-01T03:10:10;8.02;;;4.60;;
1949;SDS011;975;48.760;9.152;2023-05-01T03:12:38;8.23;;;4.47;;
1949;SDS011;975;48.760;9.152;2023-05-01T03:15:09;8.73;;;4.53;;
1949;SDS011;975;48.760;9.152;2023-05-01T03:17:37;14.63;;;4.45;;
1949;SDS011;975;48.760;9.152;2023-05-01T03:20:08;8.43;;;5.35;;
1949;SDS011;975;48.760;9.152;2023-05-01T03:22:36;6.40;;;4.00;;
1949;SDS011;975;48.760;9.152;2023-05-01T03:25:07;5.43;;;3.92;;
1949;SDS011;975;48.760;9.152;2023-05-01T03:27:36;8.38;;;4.32;;
1949;SDS011;975;48.760;9.152;2023-05-01T03:30:04;9.63;;;4.40;;
1949;SDS011;975;48.760;9.152;2023-05-01T03:32:33;6.22;;;3.90;;
1949;SDS011;975;48.760;9.152;2023-05-01T03:35:02;7.10;;;4.50;;
1949;SDS011;975;48.760;9.152;2023-05-01T03:37:30;6.03;;;3.85;;
1949;SDS011;975;48.760;9.152;2023-05-01T03:39:58;9.40;;;4.63;;
1949;SDS011;975;48.760;9.152;2023-05-01T03:42:26;9.00;;;4.30;;
1949;SDS011;975;48.760;9.152;2023-05-01T03:44:55;9.18;;;3.92;;
1949;SDS011;975;48.760;9.152;2023-05-01T03:47:23;8.85;;;4.53;;
1949;SDS011;975;48.760;9.152;2023-05-01T03:49:50;8.35;;;4.80;;
1949;SDS011;975;48.760;9.152;2023-05-01T03:52:21;8.52;;;4.10;;
1949;SDS011;975;48.760;9.152;2023-05-01T03:54:49;8.60;;;4.25;;
1949;SDS011;975;48.760;9.152;2023-05-01T03:57:20;9.90;;;4.28;;
1949;SDS011;975;48.760;9.152;2023-05-01T03:59:51;9.52;;;4.40;;
1949;SDS011;975;48.760;9.152;2023-05-01T04:02:27;8.35;;;4.35;;
1949;SDS011;975;48.760;9.152;2023-05-01T04:04:54;7.60;;;4.35;;
1949;SDS011;975;48.760;9.152;2023-05-01T04:07:22;7.82;;;4.35;;
1949;SDS011;975;48.760;9.152;2023-05-01T04:09:50;6.13;;;3.65;;
1949;SDS011;975;48.760;9.152;2023-05-01T04:12:17;8.93;;;4.07;;
1949;SDS011;975;48.760;9.152;2023-05-01T04:14:45;7.82;;;4.40;;
1949;SDS011;975;48.760;9.152;2023-05-01T04:17:13;8.23;;;5.13;;
1949;SDS011;975;48.760;9.152;2023-05-01T04:19:42;6.40;;;4.30;;
1949;SDS011;975;48.760;9.152;2023-05-01T04:22:15;6.68;;;4.22;;
1949;SDS011;975;48.760;9.152;2023-05-01T04:24:44;8.15;;;4.63;;
1949;SDS011;975;48.760;9.152;2023-05-01T04:27:14;6.70;;;4.15;;
1949;SDS011;975;48.760;9.152;2023-05-01T04:32:09;8.07;;;4.15;;
1949;SDS011;975;48.760;9.152;2023-05-01T04:34:37;8.90;;;4.10;;
1949;SDS011;975;48.760;9.152;2023-05-01T04:37:09;7.35;;;4.45;;
1949;SDS011;975;48.760;9.152;2023-05-01T04:39:42;9.10;;;4.20;;
1949;SDS011;975;48.760;9.152;2023-05-01T04:42:09;6.35;;;3.72;;
1949;SDS011;975;48.760;9.152;2023-05-01T04:44:37;6.70;;;3.90;;
1949;SDS011;975;48.760;9.152;2023-05-01T04:47:08;6.65;;;4.53;;
1949;SDS011;975;48.760;9.152;2023-05-01T04:49:35;8.02;;;4.40;;
1949;SDS011;975;48.760;9.152;2023-05-01T04:52:03;7.45;;;4.93;;
1949;SDS011;975;48.760;9.152;2023-05-01T04:54:32;6.20;;;4.35;;
1949;SDS011;975;48.760;9.152;2023-05-01T04:57:00;8.98;;;4.80;;
1949;SDS011;975;48.760;9.152;2023-05-01T04:59:28;9.35;;;4.45;;
1949;SDS011;975;48.760;9.152;2023-05-01T05:01:55;9.02;;;4.60;;
1949;SDS011;975;48.760;9.152;2023-05-01T05:04:26;9.05;;;4.47;;
1949;SDS011;975;48.760;9.152;2023-05-01T05:09:21;10.00;;;4.38;;
1949;SDS011;975;48.760;9.152;2023-05-01T05:11:50;6.20;;;4.03;;
1949;SDS011;975;48.760;9.152;2023-05-01T05:14:20;8.93;;;4.70;;
1949;SDS011;975;48.760;9.152;2023-05-01T05:19:16;8.00;;;4.22;;
1949;SDS011;975;48.760;9.152;2023-05-01T05:21:43;8.25;;;4.78;;
1949;SDS011;975;48.760;9.152;2023-05-01T05:24:11;8.45;;;4.30;;
1949;SDS011;975;48.760;9.152;2023-05-01T05:26:41;8.50;;;4.03;;
1949;SDS011;975;48.760;9.152;2023-05-01T05:29:10;6.78;;;4.22;;
1949;SDS011;975;48.760;9.152;2023-05-01T05:31:38;7.57;;;4.45;;
1949;SDS011;975;48.760;9.152;2023-05-01T05:34:06;6.53;;;4.53;;
1949;SDS011;975;48.760;9.152;2023-05-01T05:36:33;9.77;;;5.00;;
1949;SDS011;975;48.760;9.152;2023-05-01T05:39:03;11.25;;;5.40;;
1949;SDS011;975;48.760;9.152;2023-05-01T05:41:31;8.68;;;4.97;;
1949;SDS011;975;48.760;9.152;2023-05-01T05:43:58;7.72;;;4.95;;
1949;SDS011;975;48.760;9.152;2023-05-01T05:48:56;15.07;;;6.80;;
1949;SDS011;975;48.760;9.152;2023-05-01T05:51:24;12.27;;;5.90;;
1949;SDS011;975;48.760;9.152;2023-05-01T05:53:52;12.38;;;5.38;;
1949;SDS011;975;48.760;9.152;2023-05-01T05:56:20;9.75;;;5.40;;
1949;SDS011;975;48.760;9.152;2023-05-01T05:58:48;10.38;;;5.35;;
1949;SDS011;975;48.760;9.152;2023-05-01T06:01:16;10.02;;;4.72;;
1949;SDS011;975;48.760;9.152;2023-05-01T06:03:44;7.68;;;4.75;;
1949;SDS011;975;48.760;9.152;2023-05-01T06:06:12;9.27;;;4.63;;
1949;SDS011;975;48.760;9.152;2023-05-01T06:08:40;9.05;;;5.03;;
1949;SDS011;975;48.760;9.152;2023-05-01T06:11:10;10.00;;;4.95;;
1949;SDS011;975;48.760;9.152;2023-05-01T06:13:40;9.02;;;4.85;;
1949;SDS011;975;48.760;9.152;2023-05-01T06:16:08;9.57;;;5.43;;
1949;SDS011;975;48.760;9.152;2023-05-01T06:18:39;8.98;;;4.90;;
1949;SDS011;975;48.760;9.152;2023-05-01T06:21:07;8.50;;;5.28;;
1949;SDS011;975;48.760;9.152;2023-05-01T06:23:36;8.02;;;4.90;;
1949;SDS011;975;48.760;9.152;2023-05-01T06:26:04;8.95;;;4.97;;
1949;SDS011;975;48.760;9.152;2023-05-01T06:28:32;10.13;;;4.75;;
1949;SDS011;975;48.760;9.152;2023-05-01T06:31:00;7.60;;;4.97;;
1949;SDS011;975;48.760;9.152;2023-05-01T06:33:27;9.45;;;4.90;;
1949;SDS011;975;48.760;9.152;2023-05-01T06:35:55;7.90;;;4.82;;
1949;SDS011;975;48.760;9.152;2023-05-01T06:38:24;6.78;;;4.38;;
1949;SDS011;975;48.760;9.152;2023-05-01T06:40:53;7.80;;;5.05;;
1949;SDS011;975;48.760;9.152;2023-05-01T06:43:20;8.77;;;4.85;;
1949;SDS011;975;48.760;9.152;2023-05-01T06:45:52;8.45;;;4.78;;
1949;SDS011;975;48.760;9.152;2023-05-01T06:48:20;8.82;;;5.20;;
1949;SDS011;975;48.760;9.152;2023-05-01T06:50:48;8.02;;;4.88;;
1949;SDS011;975;48.760;9.152;2023-05-01T06:53:15;9.15;;;4.88;;
1949;SDS011;975;48.760;9.152;2023-05-01T06:55:43;8.95;;;5.15;;
1949;SDS011;975;48.760;9.152;2023-05-01T06:58:12;8.25;;;5.03;;
1949;SDS011;975;48.760;9.152;2023-05-01T07:00:42;9.18;;;4.90;;
1949;SDS011;975;48.760;9.152;2023-05-01T07:03:10;8.38;;;4.80;;
1949;SDS011;975;48.760;9.152;2023-05-01T07:05:37;8.80;;;4.82;;
1949;SDS011;975;48.760;9.152;2023-05-01T07:08:05;10.23;;;4.88;;
1949;SDS011;975;48.760;9.152;2023-05-01T07:10:35;7.80;;;4.60;;
1949;SDS011;975;48.760;9.152;2023-05-01T07:13:06;6.93;;;4.53;;
1949;SDS011;975;48.760;9.152;2023-05-01T07:15:35;6.03;;;3.97;;
1949;SDS011;975;48.760;9.152;2023-05-01T07:18:03;7.28;;;4.40;;
1949;SDS011;975;48.760;9.152;2023-05-01T07:20:31;8.10;;;4.50;;
1949;SDS011;975;48.760;9.152;2023-05-01T07:22:58;7.28;;;4.55;;
1949;SDS011;975;48.760;9.152;2023-05-01T07:25:26;7.18;;;4.43;;
1949;SDS011;975;48.760;9.152;2023-05-01T07:27:54;8.60;;;4.40;;
1949;SDS011;975;48.760;9.152;2023-05-01T07:30:24;6.65;;;4.43;;
1949;SDS011;975;48.760;9.152;2023-05-01T07:32:56;8.15;;;4.40;;
1949;SDS011;975;48.760;9.152;2023-05-01T07:35:23;8.15;;;4.50;;
1949;SDS011;975;48.760;9.152;2023-05-01T07:37:51;8.52;;;4.07;;
1949;SDS011;975;48.760;9.152;2023-05-01T07:40:19;7.25;;;4.60;;
1949;SDS011;975;48.760;9.152;2023-05-01T07:42:47;6.35;;;4.65;;
1949;SDS011;975;48.760;9.152;2023-05-01T07:45:15;6.95;;;4.13;;
1949;SDS011;975;48.760;9.152;2023-05-01T07:47:43;6.95;;;4.57;;
1949;SDS011;975;48.760;9.152;2023-05-01T07:50:12;6.32;;;4.20;;
1949;SDS011;975;48.760;9.152;2023-05-01T07:52:39;6.22;;;4.22;;
1949;SDS011;975;48.760;9.152;2023-05-01T07:55:07;7.60;;;4.30;;
1949;SDS011;975;48.760;9.152;2023-05-01T07:57:38;6.82;;;4.45;;
1949;SDS011;975;48.760;9.152;2023-05-01T08:00:07;7.63;;;4.55;;
1949;SDS011;975;48.760;9.152;2023-05-01T08:02:35;7.93;;;4.43;;
1949;SDS011;975;48.760;9.152;2023-05-01T08:05:03;6.60;;;4.55;;
1949;SDS011;975;48.760;9.152;2023-05-01T08:07:32;9.27;;;4.32;;
1949;SDS011;975;48.760;9.152;2023-05-01T08:10:00;6.22;;;4.18;;
1949;SDS011;975;48.760;9.152;2023-05-01T08:12:28;5.18;;;4.03;;
1949;SDS011;975;48.760;9.152;2023-05-01T08:14:56;6.38;;;4.45;;
1949;SDS011;975;48.760;9.152;2023-05-01T08:17:24;9.13;;;4.63;;
1949;SDS011;975;48.760;9.152;2023-05-01T08:19:51;7.13;;;4.60;;
1949;SDS011;975;48.760;9.152;2023-05-01T08:22:21;7.15;;;4.60;;
1949;SDS011;975;48.760;9.152;2023-05-01T08:24:50;6.28;;;4.43;;
1949;SDS011;975;48.760;9.152;2023-05-01T08:27:17;8.18;;;5.50;;
1949;SDS011;975;48.760;9.152;2023-05-01T08:29:48;6.93;;;4.30;;
1949;SDS011;975;48.760;9.152;2023-05-01T08:32:16;7.95;;;4.47;;
1949;SDS011;975;48.760;9.152;2023-05-01T08:34:43;6.53;;;4.40;;
1949;SDS011;975;48.760;9.152;2023-05-01T08:37:11;7.20;;;4.32;;
1949;SDS011;975;48.760;9.152;2023-05-01T08:39:39;8.38;;;4.55;;
1949;SDS011;975;48.760;9.152;2023-05-01T08:42:08;8.00;;;4.32;;
1949;SDS011;975;48.760;9.152;2023-05-01T08:44:36;5.90;;;3.88;;
1949;SDS011;975;48.760;9.152;2023-05-01T08:47:06;8.45;;;4.25;;
1949;SDS011;975;48.760;9.152;2023-05-01T08:49:37;6.00;;;3.65;;
1949;SDS011;975;48.760;9.152;2023-05-01T08:52:07;7.30;;;4.45;;
1949;SDS011;975;48.760;9.152;2023-05-01T08:54:34;5.85;;;4.13;;
1949;SDS011;975;48.760;9.152;2023-05-01T08:57:03;4.70;;;3.80;;
1949;SDS011;975;48.760;9.152;2023-05-01T08:59:34;5.95;;;3.70;;
1949;SDS011;975;48.760;9.152;2023-05-01T09:02:02;6.32;;;3.58;;
1949;SDS011;975;48.760;9.152;2023-05-01T09:04:30;7.45;;;4.13;;
1949;SDS011;975;48.760;9.152;2023-05-01T09:06:58;5.55;;;3.75;;
1949;SDS011;975;48.760;9.152;2023-05-01T09:09:27;5.32;;;4.18;;
1949;SDS011;975;48.760;9.152;2023-05-01T09:11:55;6.43;;;3.97;;
1949;SDS011;975;48.760;9.152;2023-05-01T09:14:28;7.18;;;3.72;;
1949;SDS011;975;48.760;9.152;2023-05-01T09:16:59;6.05;;;3.70;;
1949;SDS011;975;48.760;9.152;2023-05-01T09:19:27;5.95;;;3.78;;
1949;SDS011;975;48.760;9.152;2023-05-01T09:21:54;4.80;;;3.10;;
1949;SDS011;975;48.760;9.152;2023-05-01T09:24:22;6.90;;;3.33;;
1949;SDS011;975;48.760;9.152;2023-05-01T09:26:50;5.35;;;3.60;;
1949;SDS011;975;48.760;9.152;2023-05-01T09:29:37;5.93;;;3.22;;
1949;SDS011;975;48.760;9.152;2023-05-01T09:32:13;5.03;;;3.20;;
1949;SDS011;975;48.760;9.152;2023-05-01T09:34:41;5.68;;;3.17;;
1949;SDS011;975;48.760;9.152;2023-05-01T09:37:10;5.35;;;2.97;;
1949;SDS011;975;48.760;9.152;2023-05-01T09:39:39;4.28;;;3.38;;
1949;SDS011;975;48.760;9.152;2023-05-01T09:42:06;4.93;;;3.65;;
1949;SDS011;975;48.760;9.152;2023-05-01T09:44:40;5.20;;;3.55;;
1949;SDS011;975;48.760;9.152;2023-05-01T09:47:09;7.82;;;3.08;;
1949;SDS011;975;48.760;9.152;2023-05-01T09:49:46;7.57;;;4.45;;
1949;SDS011;975;48.760;9.152;2023-05-01T09:52:14;5.05;;;3.20;;
1949;SDS011;975;48.760;9.152;2023-05-01T09:54:42;5.85;;;3.70;;
1949;SDS011;975;48.760;9.152;2023-05-01T09:57:10;10.60;;;4.15;;
1949;SDS011;975;48.760;9.152;2023-05-01T10:00:00;7.50;;;4.63;;
1949;SDS011;975;48.760;9.152;2023-05-01T10:02:33;7.43;;;4.40;;
1949;SDS011;975;48.760;9.152;2023-05-01T10:05:02;8.40;;;4.22;;
1949;SDS011;975;48.760;9.152;2023-05-01T10:07:30;6.75;;;4.53;;
1949;SDS011;975;48.760;9.152;2023-05-01T10:10:13;6.97;;;4.35;;
1949;SDS011;975;48.760;9.152;2023-05-01T10:12:41;6.85;;;4.38;;
1949;SDS011;975;48.760;9.152;2023-05-01T10:15:09;7.43;;;4.82;;
1949;SDS011;975;48.760;9.152;2023-05-01T10:17:37;7.03;;;4.63;;
1949;SDS011;975;48.760;9.152;2023-05-01T10:20:07;8.27;;;5.00;;
1949;SDS011;975;48.760;9.152;2023-05-01T10:22:35;7.15;;;4.47;;
1949;SDS011;975;48.760;9.152;2023-05-01T10:25:05;10.63;;;4.70;;
1949;SDS011;975;48.760;9.152;2023-05-01T10:27:33;8.48;;;4.55;;
1949;SDS011;975;48.760;9.152;2023-05-01T10:30:02;7.38;;;4.82;;
1949;SDS011;975;48.760;9.152;2023-05-01T10:32:30;5.93;;;4.47;;
1949;SDS011;975;48.760;9.152;2023-05-01T10:34:59;8.25;;;4.90;;
1949;SDS011;975;48.760;9.152;2023-05-01T10:37:30;7.97;;;5.03;;
1949;SDS011;975;48.760;9.152;2023-05-01T10:45:27;8.32;;;5.03;;
1949;SDS011;975;48.760;9.152;2023-05-01T10:47:55;7.07;;;4.65;;
1949;SDS011;975;48.760;9.152;2023-05-01T10:50:23;6.90;;;5.20;;
1949;SDS011;975;48.760;9.152;2023-05-01T10:55:40;8.48;;;5.13;;
1949;SDS011;975;48.760;9.152;2023-05-01T10:58:11;6.78;;;4.72;;
1949;SDS011;975;48.760;9.152;2023-05-01T11:00:50;7.05;;;5.07;;
1949;SDS011;975;48.760;9.152;2023-05-01T11:03:35;8.15;;;4.97;;
1949;SDS011;975;48.760;9.152;2023-05-01T11:06:05;6.45;;;4.45;;
1949;SDS011;975;48.760;9.152;2023-05-01T11:08:33;8.80;;;5.30;;
1949;SDS011;975;48.760;9.152;2023-05-01T11:13:58;7.00;;;4.93;;
1949;SDS011;975;48.760;9.152;2023-05-01T11:16:44;6.25;;;4.50;;
1949;SDS011;975;48.760;9.152;2023-05-01T11:21:59;6.60;;;4.45;;
1949;SDS011;975;48.760;9.152;2023-05-01T11:24:31;7.30;;;5.10;;
1949;SDS011;975;48.760;9.152;2023-05-01T11:26:58;7.60;;;5.18;;
1949;SDS011;975;48.760;9.152;2023-05-01T11:29:30;8.63;;;5.28;;
1949;SDS011;975;48.760;9.152;2023-05-01T11:31:58;10.30;;;5.57;;
1949;SDS011;975;48.760;9.152;2023-05-01T11:34:26;12.90;;;7.28;;
1949;SDS011;975;48.760;9.152;2023-05-01T11:36:54;9.52;;;5.75;;
1949;SDS011;975;48.760;9.152;2023-05-01T11:39:21;9.07;;;5.47;;
1949;SDS011;975;48.760;9.152;2023-05-01T11:41:49;9.52;;;5.20;;
1949;SDS011;975;48.760;9.152;2023-05-01T11:44:17;8.43;;;5.15;;
1949;SDS011;975;48.760;9.152;2023-05-01T11:46:46;8.48;;;5.55;;
1949;SDS011;975;48.760;9.152;2023-05-01T11:49:28;9.75;;;5.68;;
1949;SDS011;975;48.760;9.152;2023-05-01T11:51:56;7.00;;;4.90;;
1949;SDS011;975;48.760;9.152;2023-05-01T11:54:24;8.68;;;4.90;;
1949;SDS011;975;48.760;9.152;2023-05-01T11:56:58;7.43;;;5.03;;
1949;SDS011;975;48.760;9.152;2023-05-01T11:59:26;8.05;;;4.72;;
1949;SDS011;975;48.760;9.152;2023-05-01T12:01:56;7.25;;;5.10;;
1949;SDS011;975;48.760;9.152;2023-05-01T12:04:24;7.75;;;4.40;;
1949;SDS011;975;48.760;9.152;2023-05-01T12:06:53;12.38;;;5.28;;
1949;SDS011;975;48.760;9.152;2023-05-01T12:09:21;10.50;;;4.90;;
1949;SDS011;975;48.760;9.152;2023-05-01T12:11:56;8.25;;;5.13;;
1949;SDS011;975;48.760;9.152;2023-05-01T12:14:25;7.32;;;4.90;;
1949;SDS011;975;48.760;9.152;2023-05-01T12:16:57;6.07;;;4.25;;
1949;SDS011;975;48.760;9.152;2023-05-01T12:19:25;8.25;;;5.05;;
1949;SDS011;975;48.760;9.152;2023-05-01T12:22:03;6.80;;;4.70;;
1949;SDS011;975;48.760;9.152;2023-05-01T12:24:31;8.75;;;5.10;;
1949;SDS011;975;48.760;9.152;2023-05-01T12:26:59;8.52;;;5.40;;
1949;SDS011;975;48.760;9.152;2023-05-01T12:29:38;7.85;;;5.55;;
1949;SDS011;975;48.760;9.152;2023-05-01T12:32:07;12.80;;;8.23;;
1949;SDS011;975;48.760;9.152;2023-05-01T12:34:44;8.75;;;4.97;;
1949;SDS011;975;48.760;9.152;2023-05-01T12:37:11;9.90;;;5.43;;
1949;SDS011;975;48.760;9.152;2023-05-01T12:39:39;6.32;;;4.97;;
1949;SDS011;975;48.760;9.152;2023-05-01T12:42:12;8.65;;;5.32;;
1949;SDS011;975;48.760;9.152;2023-05-01T12:44:41;10.57;;;6.80;;
1949;SDS011;975;48.760;9.152;2023-05-01T12:47:11;10.48;;;6.15;;
1949;SDS011;975;48.760;9.152;2023-05-01T12:49:40;8.35;;;5.50;;
1949;SDS011;975;48.760;9.152;2023-05-01T12:52:08;8.18;;;5.38;;
1949;SDS011;975;48.760;9.152;2023-05-01T12:54:37;6.13;;;4.50;;
1949;SDS011;975;48.760;9.152;2023-05-01T12:57:06;7.85;;;4.93;;
1949;SDS011;975;48.760;9.152;2023-05-01T12:59:35;8.38;;;5.13;;
1949;SDS011;975;48.760;9.152;2023-05-01T13:02:05;9.68;;;5.53;;
1949;SDS011;975;48.760;9.152;2023-05-01T13:04:34;10.63;;;5.00;;
1949;SDS011;975;48.760;9.152;2023-05-01T13:07:08;10.02;;;5.22;;
1949;SDS011;975;48.760;9.152;2023-05-01T13:09:36;7.60;;;4.93;;
1949;SDS011;975;48.760;9.152;2023-05-01T13:12:04;6.47;;;4.57;;
1949;SDS011;975;48.760;9.152;2023-05-01T13:14:34;6.75;;;4.75;;
1949;SDS011;975;48.760;9.152;2023-05-01T13:17:04;8.77;;;4.50;;
1949;SDS011;975;48.760;9.152;2023-05-01T13:19:33;7.13;;;4.63;;
1949;SDS011;975;48.760;9.152;2023-05-01T13:22:01;11.68;;;6.45;;
1949;SDS011;975;48.760;9.152;2023-05-01T13:24:36;8.00;;;5.05;;
1949;SDS011;975;48.760;9.152;2023-05-01T13:27:04;7.57;;;4.45;;
1949;SDS011;975;48.760;9.152;2023-05-01T13:29:39;8.25;;;5.47;;
1949;SDS011;975;48.760;9.152;2023-05-01T13:32:09;7.30;;;5.40;;
1949;SDS011;975;48.760;9.152;2023-05-01T13:34:40;8.10;;;5.57;;
1949;SDS011;975;48.760;9.152;2023-05-01T13:37:09;8.82;;;5.90;;
1949;SDS011;975;48.760;9.152;2023-05-01T13:39:38;7.50;;;5.20;;
1949;SDS011;975;48.760;9.152;2023-05-01T13:42:07;7.80;;;5.40;;
1949;SDS011;975;48.760;9.152;2023-05-01T13:44:40;8.95;;;5.30;;
1949;SDS011;975;48.760;9.152;2023-05-01T13:47:09;8.00;;;5.32;;
1949;SDS011;975;48.760;9.152;2023-05-01T13:49:40;7.82;;;4.85;;
1949;SDS011;975;48.760;9.152;2023-05-01T13:52:09;8.63;;;5.35;;
1949;SDS011;975;48.760;9.152;2023-05-01T13:54:38;8.25;;;5.60;;
1949;SDS011;975;48.760;9.152;2023-05-01T13:57:07;10.48;;;6.93;;
1949;SDS011;975;48.760;9.152;2023-05-01T13:59:35;11.80;;;6.82;;
1949;SDS011;975;48.760;9.152;2023-05-01T14:02:09;11.88;;;7.88;;
1949;SDS011;975;48.760;9.152;2023-05-01T14:04:41;10.73;;;7.28;;
1949;SDS011;975;48.760;9.152;2023-05-01T14:07:09;10.32;;;6.88;;
1949;SDS011;975;48.760;9.152;2023-05-01T14:09:38;12.00;;;6.97;;
1949;SDS011;975;48.760;9.152;2023-05-01T14:12:06;10.00;;;7.18;;
1949;SDS011;975;48.760;9.152;2023-05-01T14:14:36;11.63;;;6.95;;
1949;SDS011;975;48.760;9.152;2023-05-01T14:17:08;10.80;;;7.20;;
1949;SDS011;975;48.760;9.152;2023-05-01T14:19:36;10.57;;;7.38;;
1949;SDS011;975;48.760;9.152;2023-05-01T14:22:07;10.18;;;6.32;;
1949;SDS011;975;48.760;9.152;2023-05-01T14:24:35;9.57;;;6.93;;
1949;SDS011;975;48.760;9.152;2023-05-01T14:27:03;10.27;;;5.72;;
1949;SDS011;975;48.760;9.152;2023-05-01T14:29:31;10.70;;;5.93;;
1949;SDS011;975;48.760;9.152;2023-05-01T14:32:01;12.27;;;6.38;;
1949;SDS011;975;48.760;9.152;2023-05-01T14:34:29;9.65;;;5.97;;
1949;SDS011;975;48.760;9.152;2023-05-01T14:36:57;8.77;;;4.97;;
1949;SDS011;975;48.760;9.152;2023-05-01T14:39:27;7.45;;;4.72;;
1949;SDS011;975;48.760;9.152;2023-05-01T14:41:58;8.80;;;5.13;;
1949;SDS011;975;48.760;9.152;2023-05-01T14:44:26;7.80;;;5.65;;
1949;SDS011;975;48.760;9.152;2023-05-01T14:46:54;8.07;;;5.63;;
1949;SDS011;975;48.760;9.152;2023-05-01T14:49:23;8.57;;;4.78;;
1949;SDS011;975;48.760;9.152;2023-05-01T14:51:51;7.00;;;4.65;;
1949;SDS011;975;48.760;9.152;2023-05-01T14:54:19;7.43;;;4.57;;
1949;SDS011;975;48.760;9.152;2023-05-01T14:56:48;7.43;;;4.40;;
1949;SDS011;975;48.760;9.152;2023-05-01T14:59:19;7.57;;;4.70;;
1949;SDS011;975;48.760;9.152;2023-05-01T15:01:49;6.88;;;4.40;;
1949;SDS011;975;48.760;9.152;2023-05-01T15:04:17;6.15;;;3.92;;
1949;SDS011;975;48.760;9.152;2023-05-01T15:06:45;5.53;;;3.60;;
1949;SDS011;975;48.760;9.152;2023-05-01T15:09:12;9.23;;;4.45;;
1949;SDS011;975;48.760;9.152;2023-05-01T15:11:40;8.93;;;6.40;;
1949;SDS011;975;48.760;9.152;2023-05-01T15:14:09;11.00;;;6.65;;
1949;SDS011;975;48.760;9.152;2023-05-01T15:16:37;13.70;;;6.85;;
1949;SDS011;975;48.760;9.152;2023-05-01T15:19:04;11.05;;;7.20;;
1949;SDS011;975;48.760;9.152;2023-05-01T15:21:32;12.82;;;8.10;;
1949;SDS011;975;48.760;9.152;2023-05-01T15:23:59;13.38;;;8.07;;
1949;SDS011;975;48.760;9.152;2023-05-01T15:28:57;11.55;;;6.75;;
1949;SDS011;975;48.760;9.152;2023-05-01T15:31:29;10.40;;;6.30;;
1949;SDS011;975;48.760;9.152;2023-05-01T15:34:00;11.38;;;6.72;;
1949;SDS011;975;48.760;9.152;2023-05-01T15:36:27;13.80;;;6.35;;
1949;SDS011;975;48.760;9.152;2023-05-01T15:38:55;9.35;;;6.05;;
1949;SDS011;975;48.760;9.152;2023-05-01T15:41:23;9.23;;;5.45;;
1949;SDS011;975;48.760;9.152;2023-05-01T15:43:50;8.68;;;4.57;;
1949;SDS011;975;48.760;9.152;2023-05-01T15:46:18;9.70;;;4.97;;
1949;SDS011;975;48.760;9.152;2023-05-01T15:48:49;6.18;;;4.30;;
1949;SDS011;975;48.760;9.152;2023-05-01T15:51:16;7.50;;;4.35;;
1949;SDS011;975;48.760;9.152;2023-05-01T15:53:44;6.13;;;3.97;;
1949;SDS011;975;48.760;9.152;2023-05-01T15:56:11;6.18;;;4.15;;
1949;SDS011;975;48.760;9.152;2023-05-01T15:58:39;7.15;;;3.97;;
1949;SDS011;975;48.760;9.152;2023-05-01T16:01:07;7.38;;;4.30;;
1949;SDS011;975;48.760;9.152;2023-05-01T16:03:34;6.72;;;4.32;;
1949;SDS011;975;48.760;9.152;2023-05-01T16:06:04;7.80;;;4.05;;
1949;SDS011;975;48.760;9.152;2023-05-01T16:08:31;5.43;;;3.63;;
1949;SDS011;975;48.760;9.152;2023-05-01T16:10:59;7.78;;;3.97;;